sensor_id;sensor_type;location;lat;lon;timestamp;temperature;humidity
12885;DHT22;6510;51.362;7.370;2022-09-03T00:01:09;17.20;99.90
12885;DHT22;6510;51.362;7.370;2022-09-03T00:03:46;17.10;99.90
12885;DHT22;6510;51.362;7.370;2022-09-03T00:06:23;17.00;99.90
12885;DHT22;6510;51.362;7.370;2022-09-03T00:08:58;17.00;99.90
12885;DHT22;6510;51.362;7.370;2022-09-03T00:11:45;17.00;99.90
12885;DHT22;6510;51.362;7.370;2022-09-03T00:14:27;17.10;99.90
12885;DHT22;6510;51.362;7.370;2022-09-03T00:17:02;16.90;99.90
12885;DHT22;6510;51.362;7.370;2022-09-03T00:19:38;16.90;99.90
12885;DHT22;6510;51.362;7.370;2022-09-03T00:22:11;16.80;99.90
12885;DHT22;6510;51.362;7.370;2022-09-03T00:24:40;16.80;99.90
12885;DHT22;6510;51.362;7.370;2022-09-03T00:27:12;16.80;99.90
12885;DHT22;6510;51.362;7.370;2022-09-03T00:30:03;16.80;99.90
12885;DHT22;6510;51.362;7.370;2022-09-03T00:33:19;16.90;99.90
12885;DHT22;6510;51.362;7.370;2022-09-03T00:35:29;17.00;99.90
12885;DHT22;6510;51.362;7.370;2022-09-03T00:37:57;17.00;99.90
12885;DHT22;6510;51.362;7.370;2022-09-03T00:43:14;16.90;99.90
12885;DHT22;6510;51.362;7.370;2022-09-03T00:54:10;16.90;99.90
12885;DHT22;6510;51.362;7.370;2022-09-03T00:56:47;17.10;99.90
12885;DHT22;6510;51.362;7.370;2022-09-03T00:59:27;17.10;99.90
12885;DHT22;6510;51.362;7.370;2022-09-03T01:08:06;16.90;99.90
12885;DHT22;6510;51.362;7.370;2022-09-03T01:13:31;16.90;99.90
12885;DHT22;6510;51.362;7.370;2022-09-03T01:16:08;16.90;99.90
12885;DHT22;6510;51.362;7.370;2022-09-03T01:27:45;16.70;99.90
12885;DHT22;6510;51.362;7.370;2022-09-03T01:30:19;16.90;99.90
12885;DHT22;6510;51.362;7.370;2022-09-03T01:32:58;16.80;99.90
12885;DHT22;6510;51.362;7.370;2022-09-03T01:35:48;16.90;99.90
12885;DHT22;6510;51.362;7.370;2022-09-03T01:38:33;16.70;99.90
12885;DHT22;6510;51.362;7.370;2022-09-03T01:41:16;16.70;99.90
12885;DHT22;6510;51.362;7.370;2022-09-03T01:44:28;16.60;99.90
12885;DHT22;6510;51.362;7.370;2022-09-03T01:47:25;16.40;99.90
12885;DHT22;6510;51.362;7.370;2022-09-03T01:50:03;16.80;99.90
12885;DHT22;6510;51.362;7.370;2022-09-03T01:58:09;16.50;99.90
12885;DHT22;6510;51.362;7.370;2022-09-03T02:00:38;16.10;99.90
12885;DHT22;6510;51.362;7.370;2022-09-03T02:03:07;16.10;99.90
12885;DHT22;6510;51.362;7.370;2022-09-03T02:05:34;16.20;99.90
12885;DHT22;6510;51.362;7.370;2022-09-03T02:08:07;16.00;99.90
12885;DHT22;6510;51.362;7.370;2022-09-03T02:13:15;15.70;99.90
12885;DHT22;6510;51.362;7.370;2022-09-03T02:15:44;15.60;99.90
12885;DHT22;6510;51.362;7.370;2022-09-03T02:18:23;15.50;99.90
12885;DHT22;6510;51.362;7.370;2022-09-03T02:20:52;15.40;99.90
12885;DHT22;6510;51.362;7.370;2022-09-03T02:23:18;15.40;99.90
12885;DHT22;6510;51.362;7.370;2022-09-03T02:25:47;15.40;99.90
12885;DHT22;6510;51.362;7.370;2022-09-03T02:28:15;15.40;99.90
12885;DHT22;6510;51.362;7.370;2022-09-03T02:30:42;15.30;99.90
12885;DHT22;6510;51.362;7.370;2022-09-03T02:33:08;15.30;99.90
12885;DHT22;6510;51.362;7.370;2022-09-03T02:35:45;15.20;99.90
12885;DHT22;6510;51.362;7.370;2022-09-03T02:38:32;15.30;99.90
12885;DHT22;6510;51.362;7.370;2022-09-03T02:40:57;15.30;99.90
12885;DHT22;6510;51.362;7.370;2022-09-03T02:46:06;15.30;99.90
12885;DHT22;6510;51.362;7.370;2022-09-03T02:48:33;15.20;99.90
12885;DHT22;6510;51.362;7.370;2022-09-03T02:50:59;15.30;99.90
12885;DHT22;6510;51.362;7.370;2022-09-03T02:53:25;15.20;99.90
12885;DHT22;6510;51.362;7.370;2022-09-03T02:55:57;15.10;99.90
12885;DHT22;6510;51.362;7.370;2022-09-03T02:58:23;15.10;99.90
12885;DHT22;6510;51.362;7.370;2022-09-03T03:00:49;15.30;99.90
12885;DHT22;6510;51.362;7.370;2022-09-03T03:03:14;15.40;99.90
12885;DHT22;6510;51.362;7.370;2022-09-03T03:05:49;15.20;99.90
12885;DHT22;6510;51.362;7.370;2022-09-03T03:08:15;15.30;99.90
12885;DHT22;6510;51.362;7.370;2022-09-03T03:10:42;15.20;99.90
12885;DHT22;6510;51.362;7.370;2022-09-03T03:13:11;15.20;99.90
12885;DHT22;6510;51.362;7.370;2022-09-03T03:15:37;15.10;99.90
12885;DHT22;6510;51.362;7.370;2022-09-03T03:18:03;15.10;99.90
12885;DHT22;6510;51.362;7.370;2022-09-03T03:20:29;15.00;99.90
12885;DHT22;6510;51.362;7.370;2022-09-03T03:22:55;14.80;99.90
12885;DHT22;6510;51.362;7.370;2022-09-03T03:25:21;14.90;99.90
12885;DHT22;6510;51.362;7.370;2022-09-03T03:27:46;15.00;99.90
12885;DHT22;6510;51.362;7.370;2022-09-03T03:30:12;14.90;99.90
12885;DHT22;6510;51.362;7.370;2022-09-03T03:32:38;15.00;99.90
12885;DHT22;6510;51.362;7.370;2022-09-03T03:35:05;15.00;99.90
12885;DHT22;6510;51.362;7.370;2022-09-03T03:37:33;15.00;99.90
12885;DHT22;6510;51.362;7.370;2022-09-03T03:40:00;15.00;99.90
12885;DHT22;6510;51.362;7.370;2022-09-03T03:42:25;14.90;99.90
12885;DHT22;6510;51.362;7.370;2022-09-03T03:44:51;14.90;99.90
12885;DHT22;6510;51.362;7.370;2022-09-03T03:47:16;14.80;99.90
12885;DHT22;6510;51.362;7.370;2022-09-03T03:49:42;14.80;99.90
12885;DHT22;6510;51.362;7.370;2022-09-03T03:52:08;14.70;99.90
12885;DHT22;6510;51.362;7.370;2022-09-03T03:54:34;14.70;99.90
12885;DHT22;6510;51.362;7.370;2022-09-03T03:57:00;14.80;99.90
12885;DHT22;6510;51.362;7.370;2022-09-03T03:59:25;15.10;99.90
12885;DHT22;6510;51.362;7.370;2022-09-03T04:01:53;15.30;99.90
12885;DHT22;6510;51.362;7.370;2022-09-03T04:04:19;15.20;99.90
12885;DHT22;6510;51.362;7.370;2022-09-03T04:06:45;15.20;99.90
12885;DHT22;6510;51.362;7.370;2022-09-03T04:09:10;15.10;99.90
12885;DHT22;6510;51.362;7.370;2022-09-03T04:11:36;15.50;99.90
12885;DHT22;6510;51.362;7.370;2022-09-03T04:14:02;15.50;99.90
12885;DHT22;6510;51.362;7.370;2022-09-03T04:16:28;15.50;99.90
12885;DHT22;6510;51.362;7.370;2022-09-03T04:18:54;15.50;99.90
12885;DHT22;6510;51.362;7.370;2022-09-03T04:21:29;15.60;99.90
12885;DHT22;6510;51.362;7.370;2022-09-03T04:23:55;15.50;99.90
12885;DHT22;6510;51.362;7.370;2022-09-03T04:26:27;15.30;99.90
12885;DHT22;6510;51.362;7.370;2022-09-03T04:29:06;15.20;99.90
12885;DHT22;6510;51.362;7.370;2022-09-03T04:31:33;15.60;99.90
12885;DHT22;6510;51.362;7.370;2022-09-03T04:33:59;15.70;99.90
12885;DHT22;6510;51.362;7.370;2022-09-03T04:36:27;15.70;99.90
12885;DHT22;6510;51.362;7.370;2022-09-03T04:38:54;15.90;99.90
12885;DHT22;6510;51.362;7.370;2022-09-03T04:41:22;15.80;99.90
12885;DHT22;6510;51.362;7.370;2022-09-03T04:43:53;15.80;99.90
12885;DHT22;6510;51.362;7.370;2022-09-03T04:46:20;15.70;99.90
12885;DHT22;6510;51.362;7.370;2022-09-03T04:48:51;15.90;99.90
12885;DHT22;6510;51.362;7.370;2022-09-03T04:51:20;16.00;99.90
12885;DHT22;6510;51.362;7.370;2022-09-03T04:53:47;15.90;99.90
12885;DHT22;6510;51.362;7.370;2022-09-03T04:56:23;15.70;99.90
12885;DHT22;6510;51.362;7.370;2022-09-03T04:59:00;15.70;99.90
12885;DHT22;6510;51.362;7.370;2022-09-03T05:01:28;15.90;99.90
12885;DHT22;6510;51.362;7.370;2022-09-03T05:03:55;15.70;99.90
12885;DHT22;6510;51.362;7.370;2022-09-03T05:06:21;15.90;99.90
12885;DHT22;6510;51.362;7.370;2022-09-03T05:08:50;15.90;99.90
12885;DHT22;6510;51.362;7.370;2022-09-03T05:11:17;15.80;99.90
12885;DHT22;6510;51.362;7.370;2022-09-03T05:13:47;15.80;99.90
12885;DHT22;6510;51.362;7.370;2022-09-03T05:16:14;16.00;99.90
12885;DHT22;6510;51.362;7.370;2022-09-03T05:18:39;16.10;99.90
12885;DHT22;6510;51.362;7.370;2022-09-03T05:21:12;16.30;99.90
12885;DHT22;6510;51.362;7.370;2022-09-03T05:23:40;16.70;99.90
12885;DHT22;6510;51.362;7.370;2022-09-03T05:26:08;16.40;99.90
12885;DHT22;6510;51.362;7.370;2022-09-03T05:28:37;16.30;99.90
12885;DHT22;6510;51.362;7.370;2022-09-03T05:31:09;16.40;99.90
12885;DHT22;6510;51.362;7.370;2022-09-03T05:33:36;16.20;99.90
12885;DHT22;6510;51.362;7.370;2022-09-03T05:36:05;16.20;99.90
12885;DHT22;6510;51.362;7.370;2022-09-03T05:38:31;16.10;99.90
12885;DHT22;6510;51.362;7.370;2022-09-03T05:41:01;16.20;99.90
12885;DHT22;6510;51.362;7.370;2022-09-03T05:43:27;16.40;99.90
12885;DHT22;6510;51.362;7.370;2022-09-03T05:46:01;16.40;99.90
12885;DHT22;6510;51.362;7.370;2022-09-03T05:48:31;16.60;99.90
12885;DHT22;6510;51.362;7.370;2022-09-03T05:51:04;16.50;99.90
12885;DHT22;6510;51.362;7.370;2022-09-03T05:53:33;16.60;99.90
12885;DHT22;6510;51.362;7.370;2022-09-03T05:56:00;16.70;99.90
12885;DHT22;6510;51.362;7.370;2022-09-03T05:58:31;16.80;99.90
12885;DHT22;6510;51.362;7.370;2022-09-03T06:00:56;16.80;99.90
12885;DHT22;6510;51.362;7.370;2022-09-03T06:03:22;16.80;99.90
12885;DHT22;6510;51.362;7.370;2022-09-03T06:05:52;16.90;99.90
12885;DHT22;6510;51.362;7.370;2022-09-03T06:08:19;17.00;99.90
12885;DHT22;6510;51.362;7.370;2022-09-03T06:10:45;17.10;99.90
12885;DHT22;6510;51.362;7.370;2022-09-03T06:13:11;17.30;99.90
12885;DHT22;6510;51.362;7.370;2022-09-03T06:15:37;17.90;99.90
12885;DHT22;6510;51.362;7.370;2022-09-03T06:18:03;18.30;99.90
12885;DHT22;6510;51.362;7.370;2022-09-03T06:20:29;18.00;99.90
12885;DHT22;6510;51.362;7.370;2022-09-03T06:22:55;18.10;99.90
12885;DHT22;6510;51.362;7.370;2022-09-03T06:25:21;18.20;99.90
12885;DHT22;6510;51.362;7.370;2022-09-03T06:27:46;18.60;99.90
12885;DHT22;6510;51.362;7.370;2022-09-03T06:30:13;18.50;99.90
12885;DHT22;6510;51.362;7.370;2022-09-03T06:32:45;20.20;99.90
12885;DHT22;6510;51.362;7.370;2022-09-03T06:35:11;21.20;99.90
12885;DHT22;6510;51.362;7.370;2022-09-03T06:37:41;21.70;99.90
12885;DHT22;6510;51.362;7.370;2022-09-03T06:40:08;21.50;99.90
12885;DHT22;6510;51.362;7.370;2022-09-03T06:42:40;20.90;99.90
12885;DHT22;6510;51.362;7.370;2022-09-03T06:45:07;21.70;99.90
12885;DHT22;6510;51.362;7.370;2022-09-03T06:47:33;21.80;99.90
12885;DHT22;6510;51.362;7.370;2022-09-03T06:49:59;21.80;99.90
12885;DHT22;6510;51.362;7.370;2022-09-03T06:52:26;21.90;99.90
12885;DHT22;6510;51.362;7.370;2022-09-03T06:54:52;22.20;99.90
12885;DHT22;6510;51.362;7.370;2022-09-03T06:57:17;22.40;99.90
12885;DHT22;6510;51.362;7.370;2022-09-03T06:59:43;21.80;99.90
12885;DHT22;6510;51.362;7.370;2022-09-03T07:02:09;23.20;99.90
12885;DHT22;6510;51.362;7.370;2022-09-03T07:04:35;22.20;99.90
12885;DHT22;6510;51.362;7.370;2022-09-03T07:07:01;22.10;99.90
12885;DHT22;6510;51.362;7.370;2022-09-03T07:09:27;22.00;99.90
12885;DHT22;6510;51.362;7.370;2022-09-03T07:11:53;23.40;99.90
12885;DHT22;6510;51.362;7.370;2022-09-03T07:14:20;24.40;99.90
12885;DHT22;6510;51.362;7.370;2022-09-03T07:16:47;24.50;99.90
12885;DHT22;6510;51.362;7.370;2022-09-03T07:19:14;24.00;99.90
12885;DHT22;6510;51.362;7.370;2022-09-03T07:21:41;24.50;99.90
12885;DHT22;6510;51.362;7.370;2022-09-03T07:24:07;24.90;99.90
12885;DHT22;6510;51.362;7.370;2022-09-03T07:26:39;24.80;99.90
12885;DHT22;6510;51.362;7.370;2022-09-03T07:29:06;25.30;99.90
12885;DHT22;6510;51.362;7.370;2022-09-03T07:31:38;22.60;99.90
12885;DHT22;6510;51.362;7.370;2022-09-03T07:34:06;21.50;99.90
12885;DHT22;6510;51.362;7.370;2022-09-03T07:36:50;20.80;99.90
12885;DHT22;6510;51.362;7.370;2022-09-03T07:39:17;20.90;99.90
12885;DHT22;6510;51.362;7.370;2022-09-03T07:41:43;21.60;99.90
12885;DHT22;6510;51.362;7.370;2022-09-03T07:44:13;22.70;99.90
12885;DHT22;6510;51.362;7.370;2022-09-03T07:46:40;24.30;99.90
12885;DHT22;6510;51.362;7.370;2022-09-03T07:49:07;25.00;99.90
12885;DHT22;6510;51.362;7.370;2022-09-03T07:51:35;25.40;99.90
12885;DHT22;6510;51.362;7.370;2022-09-03T07:54:03;26.00;99.90
12885;DHT22;6510;51.362;7.370;2022-09-03T07:56:31;26.20;99.90
12885;DHT22;6510;51.362;7.370;2022-09-03T07:58:57;26.20;99.90
12885;DHT22;6510;51.362;7.370;2022-09-03T08:01:25;26.40;99.90
12885;DHT22;6510;51.362;7.370;2022-09-03T08:03:52;26.80;99.90
12885;DHT22;6510;51.362;7.370;2022-09-03T08:06:20;26.60;98.90
12885;DHT22;6510;51.362;7.370;2022-09-03T08:08:46;25.30;99.80
12885;DHT22;6510;51.362;7.370;2022-09-03T08:13:54;25.80;99.50
12885;DHT22;6510;51.362;7.370;2022-09-03T08:16:22;25.20;99.70
12885;DHT22;6510;51.362;7.370;2022-09-03T08:18:48;27.30;99.90
12885;DHT22;6510;51.362;7.370;2022-09-03T08:21:17;27.70;97.50
12885;DHT22;6510;51.362;7.370;2022-09-03T08:23:55;26.50;99.10
12885;DHT22;6510;51.362;7.370;2022-09-03T08:26:28;26.00;98.90
12885;DHT22;6510;51.362;7.370;2022-09-03T08:28:55;25.10;98.50
12885;DHT22;6510;51.362;7.370;2022-09-03T08:31:22;25.90;99.90
12885;DHT22;6510;51.362;7.370;2022-09-03T08:33:50;25.10;99.20
12885;DHT22;6510;51.362;7.370;2022-09-03T08:36:18;24.70;99.90
12885;DHT22;6510;51.362;7.370;2022-09-03T08:38:45;25.10;99.90
12885;DHT22;6510;51.362;7.370;2022-09-03T08:44:08;24.90;99.90
12885;DHT22;6510;51.362;7.370;2022-09-03T08:49:13;24.90;99.90
12885;DHT22;6510;51.362;7.370;2022-09-03T08:51:42;23.50;99.90
12885;DHT22;6510;51.362;7.370;2022-09-03T08:54:09;24.80;99.90
12885;DHT22;6510;51.362;7.370;2022-09-03T08:56:39;24.80;99.90
12885;DHT22;6510;51.362;7.370;2022-09-03T08:59:07;24.80;99.90
12885;DHT22;6510;51.362;7.370;2022-09-03T09:01:54;25.20;99.90
12885;DHT22;6510;51.362;7.370;2022-09-03T09:15:26;25.80;99.80
12885;DHT22;6510;51.362;7.370;2022-09-03T09:23:37;25.70;98.70
12885;DHT22;6510;51.362;7.370;2022-09-03T09:26:07;25.60;98.50
12885;DHT22;6510;51.362;7.370;2022-09-03T09:28:36;27.50;99.20
12885;DHT22;6510;51.362;7.370;2022-09-03T09:31:05;27.60;97.30
12885;DHT22;6510;51.362;7.370;2022-09-03T09:33:33;27.10;97.50
12885;DHT22;6510;51.362;7.370;2022-09-03T09:36:11;27.30;96.90
12885;DHT22;6510;51.362;7.370;2022-09-03T09:38:40;27.00;97.30
12885;DHT22;6510;51.362;7.370;2022-09-03T09:41:13;26.90;98.70
12885;DHT22;6510;51.362;7.370;2022-09-03T09:43:40;27.60;97.60
12885;DHT22;6510;51.362;7.370;2022-09-03T09:46:21;27.60;96.60
12885;DHT22;6510;51.362;7.370;2022-09-03T09:48:52;27.20;97.20
12885;DHT22;6510;51.362;7.370;2022-09-03T09:51:26;27.50;97.00
12885;DHT22;6510;51.362;7.370;2022-09-03T09:54:15;26.80;98.40
12885;DHT22;6510;51.362;7.370;2022-09-03T09:56:45;26.30;97.80
12885;DHT22;6510;51.362;7.370;2022-09-03T09:59:13;25.60;98.20
12885;DHT22;6510;51.362;7.370;2022-09-03T10:01:44;25.70;99.10
12885;DHT22;6510;51.362;7.370;2022-09-03T10:04:39;25.40;99.90
12885;DHT22;6510;51.362;7.370;2022-09-03T10:07:28;25.00;99.30
12885;DHT22;6510;51.362;7.370;2022-09-03T10:10:15;24.80;99.80
12885;DHT22;6510;51.362;7.370;2022-09-03T10:15:31;24.00;99.90
12885;DHT22;6510;51.362;7.370;2022-09-03T10:18:14;23.70;99.90
12885;DHT22;6510;51.362;7.370;2022-09-03T10:20:48;24.20;99.90
12885;DHT22;6510;51.362;7.370;2022-09-03T10:26:00;23.90;99.90
12885;DHT22;6510;51.362;7.370;2022-09-03T10:28:33;25.30;99.80
12885;DHT22;6510;51.362;7.370;2022-09-03T10:34:21;28.50;97.30
12885;DHT22;6510;51.362;7.370;2022-09-03T10:37:18;28.90;95.90
12885;DHT22;6510;51.362;7.370;2022-09-03T10:56:24;29.60;95.20
12885;DHT22;6510;51.362;7.370;2022-09-03T11:07:04;29.00;94.40
12885;DHT22;6510;51.362;7.370;2022-09-03T11:12:34;28.00;94.30
12885;DHT22;6510;51.362;7.370;2022-09-03T11:15:08;28.50;94.50
12885;DHT22;6510;51.362;7.370;2022-09-03T11:17:42;27.00;94.60
12885;DHT22;6510;51.362;7.370;2022-09-03T11:20:17;26.20;95.50
12885;DHT22;6510;51.362;7.370;2022-09-03T11:22:56;25.50;96.70
12885;DHT22;6510;51.362;7.370;2022-09-03T11:25:48;26.50;96.20
12885;DHT22;6510;51.362;7.370;2022-09-03T11:36:36;25.90;97.10
12885;DHT22;6510;51.362;7.370;2022-09-03T11:42:04;24.70;98.50
12885;DHT22;6510;51.362;7.370;2022-09-03T11:44:39;24.30;99.60
12885;DHT22;6510;51.362;7.370;2022-09-03T11:47:14;24.20;99.90
12885;DHT22;6510;51.362;7.370;2022-09-03T11:49:49;24.70;99.80
12885;DHT22;6510;51.362;7.370;2022-09-03T11:52:26;23.90;99.90
12885;DHT22;6510;51.362;7.370;2022-09-03T11:54:52;24.20;99.90
12885;DHT22;6510;51.362;7.370;2022-09-03T11:57:39;24.40;99.90
12885;DHT22;6510;51.362;7.370;2022-09-03T12:00:17;23.90;99.90
12885;DHT22;6510;51.362;7.370;2022-09-03T12:02:59;24.00;99.90
12885;DHT22;6510;51.362;7.370;2022-09-03T12:05:48;24.40;99.90
12885;DHT22;6510;51.362;7.370;2022-09-03T12:11:21;24.40;99.90
12885;DHT22;6510;51.362;7.370;2022-09-03T12:14:05;24.50;99.90
12885;DHT22;6510;51.362;7.370;2022-09-03T12:19:30;24.30;99.90
12885;DHT22;6510;51.362;7.370;2022-09-03T12:21:57;24.40;99.90
12885;DHT22;6510;51.362;7.370;2022-09-03T12:24:25;24.30;99.90
12885;DHT22;6510;51.362;7.370;2022-09-03T12:26:57;24.20;99.90
12885;DHT22;6510;51.362;7.370;2022-09-03T12:29:30;24.60;99.90
12885;DHT22;6510;51.362;7.370;2022-09-03T12:32:08;25.00;99.90
12885;DHT22;6510;51.362;7.370;2022-09-03T12:34:35;25.70;99.90
12885;DHT22;6510;51.362;7.370;2022-09-03T12:37:02;25.50;99.90
12885;DHT22;6510;51.362;7.370;2022-09-03T12:39:28;25.40;99.90
12885;DHT22;6510;51.362;7.370;2022-09-03T12:42:07;26.20;99.90
12885;DHT22;6510;51.362;7.370;2022-09-03T12:47:14;27.60;99.90
12885;DHT22;6510;51.362;7.370;2022-09-03T12:49:44;28.60;99.90
12885;DHT22;6510;51.362;7.370;2022-09-03T12:57:42;27.20;99.90
12885;DHT22;6510;51.362;7.370;2022-09-03T13:00:12;25.70;99.90
12885;DHT22;6510;51.362;7.370;2022-09-03T13:05:21;24.90;99.90
12885;DHT22;6510;51.362;7.370;2022-09-03T13:07:52;24.60;99.90
12885;DHT22;6510;51.362;7.370;2022-09-03T13:10:32;24.90;99.90
12885;DHT22;6510;51.362;7.370;2022-09-03T13:13:01;25.00;99.90
12885;DHT22;6510;51.362;7.370;2022-09-03T13:15:29;25.00;99.90
12885;DHT22;6510;51.362;7.370;2022-09-03T13:18:30;24.90;99.90
12885;DHT22;6510;51.362;7.370;2022-09-03T13:26:41;26.40;99.90
12885;DHT22;6510;51.362;7.370;2022-09-03T13:31:51;27.50;99.90
12885;DHT22;6510;51.362;7.370;2022-09-03T13:34:41;26.30;99.90
12885;DHT22;6510;51.362;7.370;2022-09-03T13:40:11;26.40;99.90
12885;DHT22;6510;51.362;7.370;2022-09-03T13:42:50;25.80;99.90
12885;DHT22;6510;51.362;7.370;2022-09-03T13:48:04;26.00;99.90
12885;DHT22;6510;51.362;7.370;2022-09-03T13:51:13;25.80;99.90
12885;DHT22;6510;51.362;7.370;2022-09-03T13:59:19;25.80;99.90
12885;DHT22;6510;51.362;7.370;2022-09-03T14:10:17;25.80;99.90
12885;DHT22;6510;51.362;7.370;2022-09-03T14:15:49;25.90;99.90
12885;DHT22;6510;51.362;7.370;2022-09-03T14:21:53;26.80;99.90
12885;DHT22;6510;51.362;7.370;2022-09-03T14:26:34;26.20;99.90
12885;DHT22;6510;51.362;7.370;2022-09-03T14:46:37;25.40;99.90
12885;DHT22;6510;51.362;7.370;2022-09-03T14:49:22;25.40;99.90
12885;DHT22;6510;51.362;7.370;2022-09-03T14:55:12;25.80;99.90
12885;DHT22;6510;51.362;7.370;2022-09-03T14:57:53;26.00;99.90
12885;DHT22;6510;51.362;7.370;2022-09-03T15:11:16;25.90;99.90
12885;DHT22;6510;51.362;7.370;2022-09-03T15:20:00;25.00;99.90
12885;DHT22;6510;51.362;7.370;2022-09-03T15:23:01;25.20;99.90
12885;DHT22;6510;51.362;7.370;2022-09-03T15:36:55;24.50;99.90
12885;DHT22;6510;51.362;7.370;2022-09-03T15:39:34;24.40;99.90
12885;DHT22;6510;51.362;7.370;2022-09-03T15:42:14;24.30;99.90
12885;DHT22;6510;51.362;7.370;2022-09-03T15:44:50;24.20;99.90
12885;DHT22;6510;51.362;7.370;2022-09-03T15:47:39;24.00;99.90
12885;DHT22;6510;51.362;7.370;2022-09-03T15:55:22;24.00;99.90
12885;DHT22;6510;51.362;7.370;2022-09-03T15:57:58;23.80;99.90
12885;DHT22;6510;51.362;7.370;2022-09-03T16:03:10;23.70;99.90
12885;DHT22;6510;51.362;7.370;2022-09-03T16:06:07;23.70;99.90
12885;DHT22;6510;51.362;7.370;2022-09-03T16:08:48;23.60;99.90
12885;DHT22;6510;51.362;7.370;2022-09-03T16:11:23;23.50;99.90
12885;DHT22;6510;51.362;7.370;2022-09-03T16:17:01;23.70;99.90
12885;DHT22;6510;51.362;7.370;2022-09-03T16:20:03;23.50;99.90
12885;DHT22;6510;51.362;7.370;2022-09-03T16:22:44;23.30;99.90
12885;DHT22;6510;51.362;7.370;2022-09-03T16:28:19;23.20;99.90
12885;DHT22;6510;51.362;7.370;2022-09-03T16:44:22;22.90;99.90
12885;DHT22;6510;51.362;7.370;2022-09-03T16:57:56;22.80;99.90
12885;DHT22;6510;51.362;7.370;2022-09-03T17:00:36;22.80;99.90
12885;DHT22;6510;51.362;7.370;2022-09-03T17:03:36;22.70;99.90
12885;DHT22;6510;51.362;7.370;2022-09-03T17:17:15;21.70;99.90
12885;DHT22;6510;51.362;7.370;2022-09-03T17:23:00;21.70;99.90
12885;DHT22;6510;51.362;7.370;2022-09-03T17:28:56;21.80;99.90
12885;DHT22;6510;51.362;7.370;2022-09-03T17:37:15;21.80;99.90
12885;DHT22;6510;51.362;7.370;2022-09-03T17:39:59;21.80;99.90
12885;DHT22;6510;51.362;7.370;2022-09-03T17:42:48;21.80;99.90
12885;DHT22;6510;51.362;7.370;2022-09-03T17:45:27;21.70;99.90
12885;DHT22;6510;51.362;7.370;2022-09-03T17:51:16;21.70;99.90
12885;DHT22;6510;51.362;7.370;2022-09-03T17:53:52;21.70;99.90
12885;DHT22;6510;51.362;7.370;2022-09-03T17:56:44;21.70;99.90
12885;DHT22;6510;51.362;7.370;2022-09-03T18:01:57;21.60;99.90
12885;DHT22;6510;51.362;7.370;2022-09-03T18:07:28;21.60;99.90
12885;DHT22;6510;51.362;7.370;2022-09-03T18:10:06;21.60;99.90
12885;DHT22;6510;51.362;7.370;2022-09-03T18:15:47;21.60;99.90
12885;DHT22;6510;51.362;7.370;2022-09-03T18:18:36;21.50;99.90
12885;DHT22;6510;51.362;7.370;2022-09-03T18:21:07;21.40;99.90
12885;DHT22;6510;51.362;7.370;2022-09-03T18:27:28;21.10;99.90
12885;DHT22;6510;51.362;7.370;2022-09-03T18:30:15;20.90;99.90
12885;DHT22;6510;51.362;7.370;2022-09-03T18:33:00;20.70;99.90
12885;DHT22;6510;51.362;7.370;2022-09-03T18:35:45;20.60;99.90
12885;DHT22;6510;51.362;7.370;2022-09-03T18:38:35;20.60;99.90
12885;DHT22;6510;51.362;7.370;2022-09-03T18:44:44;20.10;99.90
12885;DHT22;6510;51.362;7.370;2022-09-03T18:53:35;19.70;99.90
12885;DHT22;6510;51.362;7.370;2022-09-03T18:56:50;19.60;99.90
12885;DHT22;6510;51.362;7.370;2022-09-03T19:00:05;19.50;99.90
12885;DHT22;6510;51.362;7.370;2022-09-03T19:06:25;19.30;99.90
12885;DHT22;6510;51.362;7.370;2022-09-03T19:15:07;19.10;99.90
12885;DHT22;6510;51.362;7.370;2022-09-03T19:18:07;19.00;99.90
12885;DHT22;6510;51.362;7.370;2022-09-03T19:24:13;18.90;99.90
12885;DHT22;6510;51.362;7.370;2022-09-03T19:36:15;18.70;99.90
12885;DHT22;6510;51.362;7.370;2022-09-03T19:39:32;18.70;99.90
12885;DHT22;6510;51.362;7.370;2022-09-03T19:45:25;18.60;99.90
12885;DHT22;6510;51.362;7.370;2022-09-03T19:51:34;18.50;99.90
12885;DHT22;6510;51.362;7.370;2022-09-03T19:54:22;18.50;99.90
12885;DHT22;6510;51.362;7.370;2022-09-03T19:57:07;18.50;99.90
12885;DHT22;6510;51.362;7.370;2022-09-03T19:59:55;18.60;99.90
12885;DHT22;6510;51.362;7.370;2022-09-03T20:02:40;18.70;99.90
12885;DHT22;6510;51.362;7.370;2022-09-03T20:05:25;18.70;99.90
12885;DHT22;6510;51.362;7.370;2022-09-03T20:08:12;18.70;99.90
12885;DHT22;6510;51.362;7.370;2022-09-03T20:11:02;18.70;99.90
12885;DHT22;6510;51.362;7.370;2022-09-03T20:13:28;18.60;99.90
12885;DHT22;6510;51.362;7.370;2022-09-03T20:16:16;18.50;99.90
12885;DHT22;6510;51.362;7.370;2022-09-03T20:24:45;18.40;99.90
12885;DHT22;6510;51.362;7.370;2022-09-03T20:30:17;18.30;99.90
12885;DHT22;6510;51.362;7.370;2022-09-03T20:35:47;18.20;99.90
12885;DHT22;6510;51.362;7.370;2022-09-03T20:53:07;18.10;99.90
12885;DHT22;6510;51.362;7.370;2022-09-03T20:55:43;18.10;99.90
12885;DHT22;6510;51.362;7.370;2022-09-03T20:58:28;18.10;99.90
